createdAt,value
2023-01-23T00:01:35.580Z,633.75
2023-01-23T00:04:06.009Z,624.17
2023-01-23T00:06:34.089Z,627.28
2023-01-23T00:09:02.081Z,628.17
2023-01-23T00:11:30.530Z,627.83
2023-01-23T00:13:59.423Z,626.40
2023-01-23T00:16:30.592Z,627.00
2023-01-23T00:18:58.869Z,619.75
2023-01-23T00:21:29.423Z,617.03
2023-01-23T00:23:59.870Z,598.13
2023-01-23T00:26:30.258Z,622.65
2023-01-23T00:28:58.300Z,620.10
2023-01-23T00:31:30.754Z,613.97
2023-01-23T00:34:02.021Z,623.65
2023-01-23T00:36:48.097Z,621.90
2023-01-23T00:39:21.594Z,609.35
2023-01-23T00:44:17.928Z,614.25
2023-01-23T00:46:46.310Z,611.85
2023-01-23T00:49:14.305Z,604.70
2023-01-23T00:51:45.463Z,613.22
2023-01-23T00:54:13.354Z,609.08
2023-01-23T00:56:41.350Z,602.80
2023-01-23T00:59:09.415Z,613.38
2023-01-23T01:01:38.202Z,612.97
2023-01-23T01:04:06.548Z,596.53
2023-01-23T01:06:34.493Z,605.30
2023-01-23T01:09:02.922Z,610.83
2023-01-23T01:11:30.962Z,604.58
2023-01-23T01:14:01.570Z,600.50
2023-01-23T01:16:29.773Z,604.80
2023-01-23T01:18:59.507Z,607.83
2023-01-23T01:21:27.821Z,612.60
2023-01-23T01:23:56.053Z,609.83
2023-01-23T01:26:25.141Z,599.33
2023-01-23T01:28:53.033Z,607.08
2023-01-23T01:31:20.933Z,600.40
2023-01-23T01:33:50.058Z,597.88
2023-01-23T01:36:21.841Z,595.38
2023-01-23T01:38:49.751Z,605.65
2023-01-23T01:41:18.247Z,605.55
2023-01-23T01:43:46.751Z,598.88
2023-01-23T01:46:23.256Z,589.50
2023-01-23T01:48:59.263Z,594.55
2023-01-23T01:51:33.279Z,597.08
2023-01-23T01:54:03.631Z,592.80
2023-01-23T01:56:35.781Z,600.35
2023-01-23T01:59:05.114Z,604.50
2023-01-23T02:01:33.543Z,578.35
2023-01-23T02:04:05.191Z,601.78
2023-01-23T02:06:33.301Z,589.42
2023-01-23T02:09:17.904Z,640.92
2023-01-23T02:11:47.094Z,618.60
2023-01-23T02:14:15.151Z,619.10
2023-01-23T02:16:50.428Z,616.15
2023-01-23T02:19:32.451Z,616.33
2023-01-23T02:22:12.639Z,652.53
2023-01-23T02:24:50.165Z,662.00
2023-01-23T02:27:19.820Z,652.63
2023-01-23T02:29:48.671Z,619.90
2023-01-23T02:32:17.146Z,632.13
2023-01-23T02:34:45.365Z,602.00
2023-01-23T02:37:14.773Z,624.80
2023-01-23T02:39:42.841Z,636.45
2023-01-23T02:42:13.241Z,625.05
2023-01-23T02:44:46.844Z,616.30
2023-01-23T02:47:16.911Z,628.40
2023-01-23T02:49:45.171Z,628.85
2023-01-23T02:52:13.456Z,618.33
2023-01-23T02:54:41.402Z,615.47
2023-01-23T02:57:11.022Z,613.42
2023-01-23T02:59:58.282Z,591.50
2023-01-23T03:02:27.980Z,607.85
2023-01-23T03:04:56.073Z,596.70
2023-01-23T03:07:24.112Z,614.90
2023-01-23T03:09:52.236Z,603.80
2023-01-23T03:12:20.321Z,604.67
2023-01-23T03:14:50.151Z,577.30
2023-01-23T03:17:19.501Z,601.00
2023-01-23T03:19:47.521Z,595.33
2023-01-23T03:22:15.832Z,576.95
2023-01-23T03:24:43.873Z,580.92
2023-01-23T03:27:11.921Z,595.63
2023-01-23T03:30:03.433Z,590.85
2023-01-23T03:32:31.655Z,596.70
2023-01-23T03:35:00.117Z,606.50
2023-01-23T03:37:29.075Z,609.80
2023-01-23T03:40:17.593Z,593.40
2023-01-23T03:42:45.594Z,590.03
2023-01-23T03:45:16.315Z,593.70
2023-01-23T03:47:44.417Z,603.08
2023-01-23T03:50:12.439Z,607.08
2023-01-23T03:52:41.351Z,586.35
2023-01-23T03:55:10.434Z,585.38
2023-01-23T03:57:39.395Z,617.38
2023-01-23T04:00:08.210Z,593.75
2023-01-23T04:02:44.273Z,622.28
2023-01-23T04:05:15.120Z,617.08
2023-01-23T04:07:43.031Z,609.67
2023-01-23T04:10:13.136Z,616.13
2023-01-23T04:12:43.441Z,619.13
2023-01-23T04:15:12.554Z,612.88
2023-01-23T04:17:42.426Z,614.42
2023-01-23T04:20:11.903Z,597.03
2023-01-23T04:22:43.284Z,607.78
2023-01-23T04:25:11.537Z,576.47
2023-01-23T04:27:39.662Z,595.33
2023-01-23T04:30:10.261Z,594.17
2023-01-23T04:32:38.322Z,596.75
2023-01-23T04:35:06.794Z,592.08
2023-01-23T04:37:37.362Z,596.95
2023-01-23T04:40:05.992Z,593.50
2023-01-23T04:42:42.680Z,584.28
2023-01-23T04:45:30.925Z,582.67
2023-01-23T04:48:19.903Z,603.13
2023-01-23T04:50:50.109Z,590.72
2023-01-23T04:53:18.361Z,597.10
2023-01-23T04:55:50.112Z,591.75
2023-01-23T04:58:19.981Z,573.35
2023-01-23T05:00:48.167Z,587.72
2023-01-23T05:03:17.344Z,591.85
2023-01-23T05:05:48.548Z,591.97
2023-01-23T05:08:16.801Z,592.50
2023-01-23T05:10:51.286Z,596.33
2023-01-23T05:13:21.052Z,590.95
2023-01-23T05:15:49.021Z,585.55
2023-01-23T05:18:17.965Z,571.72
2023-01-23T05:20:47.256Z,581.60
2023-01-23T05:23:15.394Z,587.03
2023-01-23T05:25:50.675Z,587.35
2023-01-23T05:28:18.723Z,577.22
2023-01-23T05:30:53.755Z,563.65
2023-01-23T05:33:28.863Z,584.88
2023-01-23T05:36:00.722Z,570.42
2023-01-23T05:38:28.871Z,577.20
2023-01-23T05:40:56.912Z,566.92
2023-01-23T05:44:03.536Z,584.50
2023-01-23T05:46:41.400Z,581.67
2023-01-23T05:49:09.635Z,586.58
2023-01-23T05:51:38.518Z,591.42
2023-01-23T05:54:07.948Z,595.63
2023-01-23T05:56:36.164Z,595.22
2023-01-23T05:59:22.622Z,583.80
2023-01-23T06:02:11.073Z,590.03
2023-01-23T06:04:57.335Z,586.22
2023-01-23T06:07:35.793Z,593.13
2023-01-23T06:10:10.016Z,592.75
2023-01-23T06:12:38.245Z,588.85
2023-01-23T06:15:06.564Z,590.30
2023-01-23T06:17:34.691Z,595.60
2023-01-23T06:20:03.469Z,597.90
2023-01-23T06:22:32.176Z,598.80
2023-01-23T06:25:07.985Z,594.38
2023-01-23T06:27:35.973Z,598.83
2023-01-23T06:30:07.420Z,593.58
2023-01-23T06:32:40.508Z,590.28
2023-01-23T06:35:09.922Z,594.53
2023-01-23T06:37:41.162Z,589.10
2023-01-23T06:40:14.830Z,585.75
2023-01-23T06:42:54.391Z,583.25
2023-01-23T06:45:22.647Z,588.92
2023-01-23T06:47:54.887Z,586.80
2023-01-23T06:50:23.671Z,593.95
2023-01-23T06:52:51.507Z,588.10
2023-01-23T06:55:21.432Z,593.85
2023-01-23T06:57:49.811Z,592.83
2023-01-23T07:00:18.422Z,595.00
2023-01-23T07:02:46.876Z,581.80
2023-01-23T07:05:15.351Z,580.67
2023-01-23T07:07:46.958Z,585.65
2023-01-23T07:10:14.876Z,583.53
2023-01-23T07:12:43.338Z,580.85
2023-01-23T07:15:11.764Z,592.72
2023-01-23T07:17:41.463Z,596.13
2023-01-23T07:20:10.168Z,591.28
2023-01-23T07:22:43.245Z,591.83
2023-01-23T07:25:11.205Z,589.30
2023-01-23T07:27:39.082Z,578.92
2023-01-23T07:30:07.611Z,588.70
2023-01-23T07:32:35.521Z,590.42
2023-01-23T07:35:03.481Z,578.92
2023-01-23T07:37:31.523Z,589.58
2023-01-23T07:39:59.386Z,572.03
2023-01-23T07:42:27.344Z,565.53
2023-01-23T07:44:55.181Z,589.65
2023-01-23T07:47:23.028Z,583.95
2023-01-23T07:49:50.919Z,584.47
2023-01-23T07:52:18.824Z,580.97
2023-01-23T07:54:46.708Z,587.20
2023-01-23T07:57:15.133Z,584.05
2023-01-23T07:59:43.011Z,555.70
2023-01-23T08:02:11.525Z,562.30
2023-01-23T08:04:39.739Z,573.25
2023-01-23T08:07:07.636Z,566.50
2023-01-23T08:09:35.633Z,543.65
2023-01-23T08:12:03.711Z,551.47
2023-01-23T08:14:31.715Z,569.35
2023-01-23T08:17:01.764Z,556.25
2023-01-23T08:19:29.682Z,572.47
2023-01-23T08:21:57.532Z,577.08
2023-01-23T08:24:25.433Z,576.35
2023-01-23T08:26:53.288Z,589.53
2023-01-23T08:29:21.200Z,588.65
2023-01-23T08:31:49.106Z,586.95
2023-01-23T08:34:16.973Z,586.97
2023-01-23T08:36:44.800Z,591.75
2023-01-23T08:39:12.631Z,591.67
2023-01-23T08:41:40.462Z,592.25
2023-01-23T08:44:08.378Z,589.30
2023-01-23T08:46:36.282Z,597.30
2023-01-23T08:49:05.206Z,598.15
2023-01-23T08:51:33.931Z,593.75
2023-01-23T08:54:01.826Z,596.28
2023-01-23T08:56:29.739Z,601.17
2023-01-23T08:58:57.740Z,599.47
2023-01-23T09:01:27.215Z,602.47
2023-01-23T09:03:55.351Z,606.42
2023-01-23T09:06:23.549Z,600.78
2023-01-23T09:08:51.619Z,602.20
2023-01-23T09:11:20.113Z,606.10
2023-01-23T09:13:48.214Z,586.17
2023-01-23T09:16:17.275Z,615.05
2023-01-23T09:18:45.281Z,598.55
2023-01-23T09:21:17.574Z,601.45
2023-01-23T09:23:45.736Z,607.60
2023-01-23T09:26:15.388Z,609.03
2023-01-23T09:28:43.793Z,611.60
2023-01-23T09:31:14.170Z,615.90
2023-01-23T09:33:42.532Z,613.22
2023-01-23T09:36:11.601Z,610.65
2023-01-23T09:38:39.752Z,594.40
2023-01-23T09:41:17.606Z,605.67
2023-01-23T09:43:54.432Z,619.97
2023-01-23T09:46:29.230Z,590.08
2023-01-23T09:49:09.469Z,594.28
2023-01-23T09:52:02.263Z,608.63
2023-01-23T09:54:44.735Z,607.75
2023-01-23T09:57:16.629Z,599.40
2023-01-23T10:00:00.163Z,600.70
2023-01-23T10:02:31.049Z,602.60
2023-01-23T10:05:02.985Z,603.78
2023-01-23T10:07:40.591Z,600.38
2023-01-23T10:10:45.952Z,674.10
2023-01-23T10:13:23.234Z,652.93
2023-01-23T10:16:13.735Z,666.97
2023-01-23T10:19:08.089Z,665.60
2023-01-23T10:22:22.847Z,660.10
2023-01-23T10:24:55.140Z,661.45
2023-01-23T10:27:26.901Z,661.97
2023-01-23T10:30:29.955Z,668.42
2023-01-23T10:32:57.811Z,669.83
2023-01-23T10:35:47.513Z,678.97
2023-01-23T10:38:35.355Z,683.58
2023-01-23T10:41:15.310Z,690.80
2023-01-23T10:43:46.343Z,663.57
2023-01-23T10:46:20.408Z,679.85
2023-01-23T10:48:52.682Z,639.70
2023-01-23T10:51:38.703Z,692.72
2023-01-23T10:54:11.363Z,663.70
2023-01-23T10:57:03.272Z,698.00
2023-01-23T10:59:36.238Z,682.45
2023-01-23T11:02:31.496Z,693.00
2023-01-23T11:05:00.636Z,652.80
2023-01-23T11:07:33.441Z,687.43
2023-01-23T11:10:07.722Z,692.25
2023-01-23T11:12:48.101Z,693.10
2023-01-23T11:15:27.260Z,695.00
2023-01-23T11:17:57.023Z,691.67
2023-01-23T11:20:37.430Z,695.57
2023-01-23T11:23:08.710Z,692.00
2023-01-23T11:25:42.426Z,692.13
2023-01-23T11:28:48.769Z,699.67
2023-01-23T11:31:21.846Z,694.77
2023-01-23T11:34:10.484Z,695.03
2023-01-23T11:37:08.333Z,701.93
2023-01-23T11:40:15.470Z,695.93
2023-01-23T11:42:44.162Z,694.67
2023-01-23T11:45:36.131Z,701.33
2023-01-23T11:48:42.510Z,703.73
2023-01-23T11:51:38.431Z,697.93
2023-01-23T11:54:30.266Z,703.47
2023-01-23T11:57:24.625Z,701.70
2023-01-23T12:00:02.189Z,700.43
2023-01-23T12:03:04.584Z,696.37
2023-01-23T12:05:38.856Z,690.70
2023-01-23T12:08:35.775Z,703.83
2023-01-23T12:11:16.558Z,704.30
2023-01-23T12:14:18.621Z,696.60
2023-01-23T12:16:53.973Z,702.03
2023-01-23T12:19:40.551Z,685.13
2023-01-23T12:22:11.307Z,696.23
2023-01-23T12:24:47.097Z,699.70
2023-01-23T12:27:24.197Z,698.67
2023-01-23T12:30:23.221Z,693.40
2023-01-23T12:33:19.467Z,698.80
2023-01-23T12:35:54.480Z,702.47
2023-01-23T12:38:28.576Z,709.07
2023-01-23T12:41:14.732Z,698.60
2023-01-23T12:43:59.816Z,709.13
2023-01-23T12:46:44.487Z,684.77
2023-01-23T12:49:21.623Z,716.40
2023-01-23T12:52:18.474Z,711.30
2023-01-23T12:54:52.211Z,710.53
2023-01-23T12:57:52.598Z,701.60
2023-01-23T13:00:53.173Z,692.67
2023-01-23T13:03:51.952Z,720.53
2023-01-23T13:06:37.465Z,739.00
2023-01-23T13:09:20.186Z,737.47
2023-01-23T13:12:08.972Z,750.92
2023-01-23T13:15:13.930Z,713.63
2023-01-23T13:17:45.420Z,799.47
2023-01-23T13:20:38.645Z,809.97
2023-01-23T13:23:24.796Z,754.03
2023-01-23T13:26:16.041Z,737.87
2023-01-23T13:28:57.820Z,709.47
2023-01-23T13:31:47.143Z,766.57
2023-01-23T13:34:18.559Z,774.03
2023-01-23T13:36:51.567Z,771.83
2023-01-23T13:39:30.317Z,713.42
2023-01-23T13:42:16.229Z,770.50
2023-01-23T13:45:27.483Z,770.87
2023-01-23T15:05:59.643Z,803.73
2023-01-23T15:08:32.511Z,821.63
2023-01-23T15:11:01.950Z,802.13
2023-01-23T15:13:35.717Z,774.67
2023-01-23T15:16:07.106Z,761.17
2023-01-23T15:18:36.647Z,779.53
2023-01-23T15:21:08.934Z,775.87
2023-01-23T15:23:38.850Z,772.47
2023-01-23T15:26:18.870Z,784.03
2023-01-23T15:28:57.761Z,777.73
2023-01-23T15:31:33.614Z,793.57
2023-01-23T15:34:20.730Z,769.63
2023-01-23T15:37:19.167Z,798.90
2023-01-23T15:39:47.008Z,774.87
2023-01-23T15:42:14.923Z,782.10
2023-01-23T15:44:43.644Z,716.53
2023-01-23T15:47:11.727Z,789.13
2023-01-23T15:49:40.651Z,783.07
2023-01-23T15:52:46.227Z,776.07
2023-01-23T15:55:15.315Z,687.97
2023-01-23T15:57:43.992Z,799.77
2023-01-23T16:00:16.775Z,786.67
2023-01-23T16:02:55.741Z,781.85
2023-01-23T16:05:37.504Z,728.83
2023-01-23T16:08:14.148Z,712.20
2023-01-23T16:10:42.230Z,718.67
2023-01-23T16:13:14.125Z,730.13
2023-01-23T16:15:42.372Z,716.80
2023-01-23T16:18:10.653Z,720.47
2023-01-23T16:20:43.815Z,707.23
2023-01-23T16:23:15.549Z,727.58
2023-01-23T16:25:46.140Z,724.33
2023-01-23T16:28:21.378Z,718.43
2023-01-23T16:30:52.013Z,707.93
2023-01-23T16:33:21.036Z,716.43
2023-01-23T16:35:51.087Z,715.93
2023-01-23T16:38:28.301Z,709.53
2023-01-23T16:40:59.759Z,693.67
2023-01-23T16:43:28.076Z,712.20
2023-01-23T16:45:56.879Z,708.60
2023-01-23T16:48:28.506Z,723.17
2023-01-23T16:51:08.607Z,699.30
2023-01-23T16:53:40.985Z,711.72
2023-01-23T16:56:20.568Z,711.23
2023-01-23T16:58:49.732Z,708.40
2023-01-23T17:01:23.308Z,706.37
2023-01-23T17:04:04.056Z,687.63
2023-01-23T17:06:32.332Z,704.33
2023-01-23T17:09:00.278Z,706.83
2023-01-23T17:11:34.366Z,716.50
2023-01-23T17:14:09.550Z,711.77
2023-01-23T17:16:37.505Z,713.83
2023-01-23T17:19:16.668Z,715.23
2023-01-23T17:21:46.225Z,722.47
2023-01-23T17:24:17.989Z,722.37
2023-01-23T17:26:46.459Z,723.57
2023-01-23T17:29:15.413Z,727.67
2023-01-23T17:31:43.851Z,727.20
2023-01-23T17:34:24.332Z,720.33
2023-01-23T17:36:54.612Z,733.40
2023-01-23T17:39:22.674Z,737.37
2023-01-23T17:41:51.607Z,738.43
2023-01-23T17:44:19.626Z,747.93
2023-01-23T17:46:48.036Z,738.33
2023-01-23T17:49:30.539Z,748.17
2023-01-23T17:51:59.801Z,754.57
2023-01-23T17:54:29.072Z,752.43
2023-01-23T17:56:56.990Z,756.67
2023-01-23T17:59:25.110Z,761.47
2023-01-23T18:01:53.258Z,753.87
2023-01-23T18:04:23.067Z,746.33
2023-01-23T18:06:51.497Z,753.47
2023-01-23T18:09:20.557Z,750.63
2023-01-23T18:11:52.722Z,748.20
2023-01-23T18:14:48.099Z,750.93
2023-01-23T18:17:28.847Z,756.70
2023-01-23T18:19:57.108Z,761.60
2023-01-23T18:22:25.358Z,762.17
2023-01-23T18:24:53.551Z,762.50
2023-01-23T18:27:26.607Z,704.97
2023-01-23T18:30:18.737Z,759.67
2023-01-23T18:32:46.643Z,762.50
2023-01-23T18:35:35.475Z,763.27
2023-01-23T18:38:06.161Z,764.30
2023-01-23T18:40:58.331Z,757.87
2023-01-23T18:43:33.927Z,758.57
2023-01-23T18:46:02.094Z,755.30
2023-01-23T18:48:30.507Z,749.53
2023-01-23T18:51:14.247Z,753.67
2023-01-23T18:53:50.908Z,734.87
2023-01-23T18:56:24.970Z,702.30
2023-01-23T18:59:12.048Z,751.83
2023-01-23T19:02:09.855Z,752.40
2023-01-23T19:04:45.935Z,710.13
2023-01-23T19:07:19.087Z,747.80
2023-01-23T19:12:41.771Z,756.03
2023-01-23T19:15:33.444Z,752.03
2023-01-23T19:18:40.498Z,758.90
2023-01-23T19:21:23.723Z,635.83
2023-01-23T19:24:02.009Z,768.90
2023-01-23T19:26:34.509Z,749.40
2023-01-23T19:29:19.990Z,742.67
2023-01-23T19:32:03.701Z,757.47
2023-01-23T19:34:34.992Z,757.40
2023-01-23T19:37:03.615Z,759.00
2023-01-23T19:39:31.853Z,754.53
2023-01-23T19:42:00.439Z,759.87
2023-01-23T19:44:36.789Z,763.27
2023-01-23T19:47:34.214Z,755.27
2023-01-23T19:50:03.333Z,757.20
2023-01-23T19:52:32.472Z,761.77
2023-01-23T19:55:00.835Z,745.83
2023-01-23T19:57:29.767Z,761.30
2023-01-23T19:59:57.903Z,733.70
2023-01-23T20:02:27.000Z,729.60
2023-01-23T20:04:57.972Z,745.57
2023-01-23T20:07:27.483Z,744.70
2023-01-23T20:09:56.070Z,772.60
2023-01-23T20:12:24.208Z,778.50
2023-01-23T20:14:52.623Z,801.37
2023-01-23T20:17:20.983Z,790.37
2023-01-23T20:19:49.427Z,754.60
2023-01-23T20:22:19.603Z,785.53
2023-01-23T20:24:47.899Z,789.37
2023-01-23T20:27:15.941Z,782.97
2023-01-23T20:29:43.895Z,765.27
2023-01-23T20:32:13.209Z,734.13
2023-01-23T20:34:42.019Z,752.50
2023-01-23T20:37:11.492Z,750.60
2023-01-23T20:39:41.831Z,800.93
2023-01-23T20:42:11.444Z,797.20
2023-01-23T20:44:41.397Z,749.20
2023-01-23T20:47:11.009Z,736.43
2023-01-23T20:49:39.789Z,730.73
2023-01-23T20:52:26.201Z,746.83
2023-01-23T20:54:54.712Z,750.73
2023-01-23T20:57:22.749Z,748.53
2023-01-23T20:59:51.040Z,743.73
2023-01-23T21:02:25.791Z,749.93
2023-01-23T21:04:54.143Z,803.73
2023-01-23T21:07:22.859Z,797.47
2023-01-23T21:09:51.309Z,731.40
2023-01-23T21:12:19.584Z,746.53
2023-01-23T21:14:47.639Z,739.10
2023-01-23T21:17:15.731Z,648.67
2023-01-23T21:19:45.429Z,658.00
2023-01-23T21:22:13.801Z,748.30
2023-01-23T21:24:41.988Z,748.67
2023-01-23T21:27:10.160Z,749.80
2023-01-23T21:29:38.703Z,750.50
2023-01-23T21:32:06.737Z,750.83
2023-01-23T21:34:34.809Z,748.73
2023-01-23T21:37:05.071Z,749.70
2023-01-23T21:39:35.234Z,754.40
2023-01-23T21:42:03.275Z,751.40
2023-01-23T21:44:31.696Z,756.27
2023-01-23T21:47:00.699Z,762.17
2023-01-23T21:49:30.674Z,760.63
2023-01-23T21:51:58.634Z,761.93
2023-01-23T21:54:26.719Z,755.17
2023-01-23T21:56:54.821Z,769.17
2023-01-23T21:59:22.829Z,742.10
2023-01-23T22:01:50.858Z,763.40
2023-01-23T22:04:23.488Z,750.97
2023-01-23T22:06:57.052Z,765.40
2023-01-23T22:09:26.200Z,763.27
2023-01-23T22:11:55.084Z,741.73
2023-01-23T22:14:24.236Z,756.40
2023-01-23T22:16:52.907Z,768.80
2023-01-23T22:19:25.627Z,767.60
2023-01-23T22:21:55.427Z,756.83
2023-01-23T22:24:23.836Z,748.60
2023-01-23T22:26:51.961Z,761.33
2023-01-23T22:29:20.064Z,767.20
2023-01-23T22:31:48.156Z,752.47
2023-01-23T22:34:16.224Z,741.53
2023-01-23T22:36:44.124Z,727.77
2023-01-23T22:39:16.443Z,753.83
2023-01-23T22:41:46.372Z,816.90
2023-01-23T22:44:14.598Z,758.53
2023-01-23T22:46:43.065Z,734.40
2023-01-23T22:49:11.402Z,755.73
2023-01-23T22:51:39.426Z,745.73
2023-01-23T22:54:07.608Z,748.80
2023-01-23T22:56:35.723Z,730.53
2023-01-23T22:59:04.235Z,812.27
2023-01-23T23:01:32.374Z,797.53
2023-01-23T23:04:00.641Z,784.13
2023-01-23T23:06:28.994Z,786.47
2023-01-23T23:08:56.962Z,783.13
2023-01-23T23:11:27.872Z,743.27
2023-01-23T23:13:57.418Z,747.87
2023-01-23T23:16:28.705Z,815.10
2023-01-23T23:18:59.584Z,782.93
2023-01-23T23:21:31.789Z,781.73
2023-01-23T23:24:00.887Z,781.47
2023-01-23T23:26:31.655Z,777.07
2023-01-23T23:29:02.893Z,793.10
2023-01-23T23:31:31.142Z,808.60
2023-01-23T23:33:59.240Z,780.83
2023-01-23T23:36:27.456Z,802.40
2023-01-23T23:38:55.419Z,772.73
2023-01-23T23:41:23.356Z,727.43
2023-01-23T23:43:51.783Z,759.67
2023-01-23T23:46:19.898Z,769.97
2023-01-23T23:48:48.344Z,778.33
2023-01-23T23:51:18.983Z,774.87
2023-01-23T23:53:46.911Z,780.60
2023-01-23T23:56:26.813Z,784.23
2023-01-23T23:58:56.079Z,798.70
